sensor_id;sensor_type;location;lat;lon;timestamp;P1;durP1;ratioP1;P2;durP2;ratioP2
12840;SDS011;6487;48.626;12.486;2024-03-07T00:00:14;35.50;;;26.77;;
12840;SDS011;6487;48.626;12.486;2024-03-07T00:02:45;31.43;;;26.03;;
12840;SDS011;6487;48.626;12.486;2024-03-07T00:05:16;35.90;;;26.37;;
12840;SDS011;6487;48.626;12.486;2024-03-07T00:07:46;34.07;;;25.30;;
12840;SDS011;6487;48.626;12.486;2024-03-07T00:10:16;34.57;;;25.33;;
12840;SDS011;6487;48.626;12.486;2024-03-07T00:12:45;34.30;;;25.50;;
12840;SDS011;6487;48.626;12.486;2024-03-07T00:15:14;32.73;;;25.63;;
12840;SDS011;6487;48.626;12.486;2024-03-07T00:17:44;31.70;;;25.43;;
12840;SDS011;6487;48.626;12.486;2024-03-07T00:20:13;33.37;;;26.90;;
12840;SDS011;6487;48.626;12.486;2024-03-07T00:22:42;32.63;;;24.67;;
12840;SDS011;6487;48.626;12.486;2024-03-07T00:25:12;30.37;;;25.47;;
12840;SDS011;6487;48.626;12.486;2024-03-07T00:27:47;32.53;;;25.27;;
12840;SDS011;6487;48.626;12.486;2024-03-07T00:30:19;31.17;;;25.33;;
12840;SDS011;6487;48.626;12.486;2024-03-07T00:32:47;30.70;;;24.00;;
12840;SDS011;6487;48.626;12.486;2024-03-07T00:35:16;31.27;;;24.43;;
12840;SDS011;6487;48.626;12.486;2024-03-07T00:37:47;31.97;;;25.33;;
12840;SDS011;6487;48.626;12.486;2024-03-07T00:40:15;32.60;;;25.30;;
12840;SDS011;6487;48.626;12.486;2024-03-07T00:42:43;31.77;;;24.97;;
12840;SDS011;6487;48.626;12.486;2024-03-07T00:45:13;31.73;;;25.10;;
12840;SDS011;6487;48.626;12.486;2024-03-07T00:47:42;34.97;;;25.37;;
12840;SDS011;6487;48.626;12.486;2024-03-07T00:50:10;31.07;;;24.87;;
12840;SDS011;6487;48.626;12.486;2024-03-07T00:52:39;31.77;;;24.50;;
12840;SDS011;6487;48.626;12.486;2024-03-07T00:55:08;36.33;;;26.10;;
12840;SDS011;6487;48.626;12.486;2024-03-07T00:57:36;33.43;;;24.70;;
12840;SDS011;6487;48.626;12.486;2024-03-07T01:00:06;32.63;;;25.47;;
12840;SDS011;6487;48.626;12.486;2024-03-07T01:02:42;29.07;;;22.73;;
12840;SDS011;6487;48.626;12.486;2024-03-07T01:05:10;33.03;;;26.53;;
12840;SDS011;6487;48.626;12.486;2024-03-07T01:07:41;34.37;;;25.67;;
12840;SDS011;6487;48.626;12.486;2024-03-07T01:10:10;30.33;;;24.13;;
12840;SDS011;6487;48.626;12.486;2024-03-07T01:12:40;32.40;;;22.67;;
12840;SDS011;6487;48.626;12.486;2024-03-07T01:15:09;28.37;;;22.77;;
12840;SDS011;6487;48.626;12.486;2024-03-07T01:17:38;31.70;;;23.43;;
12840;SDS011;6487;48.626;12.486;2024-03-07T01:20:09;32.83;;;23.83;;
12840;SDS011;6487;48.626;12.486;2024-03-07T01:22:39;33.20;;;23.40;;
12840;SDS011;6487;48.626;12.486;2024-03-07T01:25:07;29.60;;;22.90;;
12840;SDS011;6487;48.626;12.486;2024-03-07T01:27:38;31.07;;;23.73;;
12840;SDS011;6487;48.626;12.486;2024-03-07T01:30:07;33.33;;;23.00;;
12840;SDS011;6487;48.626;12.486;2024-03-07T01:32:36;31.47;;;23.23;;
12840;SDS011;6487;48.626;12.486;2024-03-07T01:35:05;29.77;;;22.60;;
12840;SDS011;6487;48.626;12.486;2024-03-07T01:37:36;29.27;;;22.67;;
12840;SDS011;6487;48.626;12.486;2024-03-07T01:40:05;28.07;;;22.53;;
12840;SDS011;6487;48.626;12.486;2024-03-07T01:42:35;33.43;;;24.27;;
12840;SDS011;6487;48.626;12.486;2024-03-07T01:45:04;29.90;;;22.27;;
12840;SDS011;6487;48.626;12.486;2024-03-07T01:47:34;29.87;;;23.47;;
12840;SDS011;6487;48.626;12.486;2024-03-07T01:50:04;31.57;;;23.23;;
12840;SDS011;6487;48.626;12.486;2024-03-07T01:52:36;28.97;;;22.33;;
12840;SDS011;6487;48.626;12.486;2024-03-07T01:55:07;29.07;;;23.50;;
12840;SDS011;6487;48.626;12.486;2024-03-07T01:57:37;33.77;;;23.83;;
12840;SDS011;6487;48.626;12.486;2024-03-07T02:00:06;27.63;;;21.97;;
12840;SDS011;6487;48.626;12.486;2024-03-07T02:02:38;30.83;;;22.40;;
12840;SDS011;6487;48.626;12.486;2024-03-07T02:05:07;27.07;;;21.37;;
12840;SDS011;6487;48.626;12.486;2024-03-07T02:07:38;27.93;;;21.80;;
12840;SDS011;6487;48.626;12.486;2024-03-07T02:10:06;29.10;;;22.30;;
12840;SDS011;6487;48.626;12.486;2024-03-07T02:12:36;27.90;;;22.07;;
12840;SDS011;6487;48.626;12.486;2024-03-07T02:15:08;29.80;;;22.43;;
12840;SDS011;6487;48.626;12.486;2024-03-07T02:17:36;35.03;;;23.57;;
12840;SDS011;6487;48.626;12.486;2024-03-07T02:20:10;30.80;;;22.07;;
12840;SDS011;6487;48.626;12.486;2024-03-07T02:22:41;28.10;;;20.70;;
12840;SDS011;6487;48.626;12.486;2024-03-07T02:25:10;26.70;;;21.40;;
12840;SDS011;6487;48.626;12.486;2024-03-07T02:27:38;27.77;;;22.00;;
12840;SDS011;6487;48.626;12.486;2024-03-07T02:30:07;31.13;;;22.13;;
12840;SDS011;6487;48.626;12.486;2024-03-07T02:32:36;27.87;;;20.57;;
12840;SDS011;6487;48.626;12.486;2024-03-07T02:35:08;31.33;;;20.33;;
12840;SDS011;6487;48.626;12.486;2024-03-07T02:37:36;31.37;;;21.47;;
12840;SDS011;6487;48.626;12.486;2024-03-07T02:40:07;28.73;;;22.17;;
12840;SDS011;6487;48.626;12.486;2024-03-07T02:42:37;29.30;;;21.03;;
12840;SDS011;6487;48.626;12.486;2024-03-07T02:45:06;27.13;;;21.27;;
12840;SDS011;6487;48.626;12.486;2024-03-07T02:47:36;32.43;;;22.73;;
12840;SDS011;6487;48.626;12.486;2024-03-07T02:50:05;26.30;;;20.97;;
12840;SDS011;6487;48.626;12.486;2024-03-07T02:52:34;29.67;;;21.77;;
12840;SDS011;6487;48.626;12.486;2024-03-07T02:55:02;29.70;;;20.27;;
12840;SDS011;6487;48.626;12.486;2024-03-07T02:57:33;30.83;;;21.73;;
12840;SDS011;6487;48.626;12.486;2024-03-07T03:00:05;27.73;;;21.83;;
12840;SDS011;6487;48.626;12.486;2024-03-07T03:02:46;29.57;;;21.83;;
12840;SDS011;6487;48.626;12.486;2024-03-07T03:05:16;30.10;;;21.43;;
12840;SDS011;6487;48.626;12.486;2024-03-07T03:07:45;27.03;;;21.20;;
12840;SDS011;6487;48.626;12.486;2024-03-07T03:10:21;28.83;;;21.70;;
12840;SDS011;6487;48.626;12.486;2024-03-07T03:12:55;27.40;;;20.53;;
12840;SDS011;6487;48.626;12.486;2024-03-07T03:15:24;28.37;;;20.63;;
12840;SDS011;6487;48.626;12.486;2024-03-07T03:17:53;26.20;;;20.57;;
12840;SDS011;6487;48.626;12.486;2024-03-07T03:20:26;30.40;;;20.43;;
12840;SDS011;6487;48.626;12.486;2024-03-07T03:23:01;32.73;;;21.60;;
12840;SDS011;6487;48.626;12.486;2024-03-07T03:25:33;28.57;;;20.77;;
12840;SDS011;6487;48.626;12.486;2024-03-07T03:28:05;29.03;;;21.37;;
12840;SDS011;6487;48.626;12.486;2024-03-07T03:30:36;27.33;;;20.50;;
12840;SDS011;6487;48.626;12.486;2024-03-07T03:33:08;27.30;;;20.23;;
12840;SDS011;6487;48.626;12.486;2024-03-07T03:35:37;29.73;;;22.03;;
12840;SDS011;6487;48.626;12.486;2024-03-07T03:38:06;32.80;;;23.87;;
12840;SDS011;6487;48.626;12.486;2024-03-07T03:40:35;32.07;;;24.13;;
12840;SDS011;6487;48.626;12.486;2024-03-07T03:43:08;29.30;;;21.97;;
12840;SDS011;6487;48.626;12.486;2024-03-07T03:45:36;30.13;;;22.17;;
12840;SDS011;6487;48.626;12.486;2024-03-07T03:48:04;30.10;;;22.60;;
12840;SDS011;6487;48.626;12.486;2024-03-07T03:50:34;31.70;;;22.83;;
12840;SDS011;6487;48.626;12.486;2024-03-07T03:53:02;30.23;;;22.57;;
12840;SDS011;6487;48.626;12.486;2024-03-07T03:55:34;32.87;;;21.37;;
12840;SDS011;6487;48.626;12.486;2024-03-07T03:58:03;28.67;;;20.87;;
12840;SDS011;6487;48.626;12.486;2024-03-07T04:00:45;29.53;;;21.23;;
12840;SDS011;6487;48.626;12.486;2024-03-07T04:03:16;29.17;;;21.80;;
12840;SDS011;6487;48.626;12.486;2024-03-07T04:05:44;31.83;;;21.30;;
12840;SDS011;6487;48.626;12.486;2024-03-07T04:08:13;26.03;;;21.50;;
12840;SDS011;6487;48.626;12.486;2024-03-07T04:10:41;31.07;;;22.43;;
12840;SDS011;6487;48.626;12.486;2024-03-07T04:13:11;27.87;;;21.27;;
12840;SDS011;6487;48.626;12.486;2024-03-07T04:15:41;31.23;;;21.00;;
12840;SDS011;6487;48.626;12.486;2024-03-07T04:18:10;30.30;;;21.23;;
12840;SDS011;6487;48.626;12.486;2024-03-07T04:20:39;29.37;;;21.23;;
12840;SDS011;6487;48.626;12.486;2024-03-07T04:23:10;33.33;;;22.20;;
12840;SDS011;6487;48.626;12.486;2024-03-07T04:25:39;30.43;;;22.57;;
12840;SDS011;6487;48.626;12.486;2024-03-07T04:28:08;30.07;;;22.40;;
12840;SDS011;6487;48.626;12.486;2024-03-07T04:30:36;30.90;;;22.10;;
12840;SDS011;6487;48.626;12.486;2024-03-07T04:33:06;31.77;;;22.27;;
12840;SDS011;6487;48.626;12.486;2024-03-07T04:35:34;27.50;;;21.43;;
12840;SDS011;6487;48.626;12.486;2024-03-07T04:38:03;28.77;;;21.57;;
12840;SDS011;6487;48.626;12.486;2024-03-07T04:40:36;30.20;;;21.60;;
12840;SDS011;6487;48.626;12.486;2024-03-07T04:43:05;32.07;;;22.43;;
12840;SDS011;6487;48.626;12.486;2024-03-07T04:45:34;33.13;;;21.60;;
12840;SDS011;6487;48.626;12.486;2024-03-07T04:48:02;30.50;;;21.03;;
12840;SDS011;6487;48.626;12.486;2024-03-07T04:50:34;32.50;;;22.40;;
12840;SDS011;6487;48.626;12.486;2024-03-07T04:53:02;32.87;;;23.70;;
12840;SDS011;6487;48.626;12.486;2024-03-07T04:55:32;33.73;;;22.40;;
12840;SDS011;6487;48.626;12.486;2024-03-07T04:58:00;31.20;;;22.60;;
12840;SDS011;6487;48.626;12.486;2024-03-07T05:00:28;28.50;;;21.53;;
12840;SDS011;6487;48.626;12.486;2024-03-07T05:02:57;32.53;;;21.37;;
12840;SDS011;6487;48.626;12.486;2024-03-07T05:05:25;28.50;;;20.13;;
12840;SDS011;6487;48.626;12.486;2024-03-07T05:07:56;32.83;;;21.53;;
12840;SDS011;6487;48.626;12.486;2024-03-07T05:10:24;34.50;;;21.93;;
12840;SDS011;6487;48.626;12.486;2024-03-07T05:12:54;30.53;;;21.87;;
12840;SDS011;6487;48.626;12.486;2024-03-07T05:15:25;28.73;;;21.33;;
12840;SDS011;6487;48.626;12.486;2024-03-07T05:17:53;30.13;;;21.50;;
12840;SDS011;6487;48.626;12.486;2024-03-07T05:20:23;33.53;;;22.33;;
12840;SDS011;6487;48.626;12.486;2024-03-07T05:22:51;31.93;;;21.37;;
12840;SDS011;6487;48.626;12.486;2024-03-07T05:25:21;31.20;;;22.67;;
12840;SDS011;6487;48.626;12.486;2024-03-07T05:27:49;32.73;;;22.50;;
12840;SDS011;6487;48.626;12.486;2024-03-07T05:30:18;31.70;;;22.60;;
12840;SDS011;6487;48.626;12.486;2024-03-07T05:32:48;32.70;;;21.87;;
12840;SDS011;6487;48.626;12.486;2024-03-07T05:35:17;31.90;;;22.27;;
12840;SDS011;6487;48.626;12.486;2024-03-07T05:37:47;26.07;;;20.37;;
12840;SDS011;6487;48.626;12.486;2024-03-07T05:40:18;30.60;;;21.30;;
12840;SDS011;6487;48.626;12.486;2024-03-07T05:42:48;30.63;;;21.37;;
12840;SDS011;6487;48.626;12.486;2024-03-07T05:45:16;32.03;;;22.83;;
12840;SDS011;6487;48.626;12.486;2024-03-07T05:47:47;32.07;;;23.00;;
12840;SDS011;6487;48.626;12.486;2024-03-07T05:50:15;31.53;;;22.07;;
12840;SDS011;6487;48.626;12.486;2024-03-07T05:52:44;31.23;;;22.97;;
12840;SDS011;6487;48.626;12.486;2024-03-07T05:55:15;36.50;;;22.80;;
12840;SDS011;6487;48.626;12.486;2024-03-07T05:57:47;32.03;;;21.90;;
12840;SDS011;6487;48.626;12.486;2024-03-07T06:00:15;29.40;;;21.43;;
12840;SDS011;6487;48.626;12.486;2024-03-07T06:02:54;32.80;;;22.17;;
12840;SDS011;6487;48.626;12.486;2024-03-07T06:05:24;33.93;;;23.63;;
12840;SDS011;6487;48.626;12.486;2024-03-07T06:07:53;32.37;;;24.03;;
12840;SDS011;6487;48.626;12.486;2024-03-07T06:10:23;30.90;;;22.93;;
12840;SDS011;6487;48.626;12.486;2024-03-07T06:12:53;36.67;;;25.13;;
12840;SDS011;6487;48.626;12.486;2024-03-07T06:15:35;29.73;;;21.63;;
12840;SDS011;6487;48.626;12.486;2024-03-07T06:18:05;35.30;;;22.47;;
12840;SDS011;6487;48.626;12.486;2024-03-07T06:20:37;32.50;;;23.10;;
12840;SDS011;6487;48.626;12.486;2024-03-07T06:23:07;28.57;;;20.90;;
12840;SDS011;6487;48.626;12.486;2024-03-07T06:25:38;31.30;;;20.93;;
12840;SDS011;6487;48.626;12.486;2024-03-07T06:28:15;29.50;;;20.27;;
12840;SDS011;6487;48.626;12.486;2024-03-07T06:30:44;32.20;;;21.67;;
12840;SDS011;6487;48.626;12.486;2024-03-07T06:33:14;31.67;;;21.87;;
12840;SDS011;6487;48.626;12.486;2024-03-07T06:35:47;31.37;;;22.57;;
12840;SDS011;6487;48.626;12.486;2024-03-07T06:38:18;35.37;;;24.27;;
12840;SDS011;6487;48.626;12.486;2024-03-07T06:40:48;31.33;;;22.77;;
12840;SDS011;6487;48.626;12.486;2024-03-07T06:43:17;33.40;;;23.60;;
12840;SDS011;6487;48.626;12.486;2024-03-07T06:45:46;36.10;;;23.47;;
12840;SDS011;6487;48.626;12.486;2024-03-07T06:48:16;35.67;;;25.30;;
12840;SDS011;6487;48.626;12.486;2024-03-07T06:50:45;35.10;;;23.97;;
12840;SDS011;6487;48.626;12.486;2024-03-07T06:53:13;35.70;;;25.30;;
12840;SDS011;6487;48.626;12.486;2024-03-07T06:55:42;38.53;;;28.50;;
12840;SDS011;6487;48.626;12.486;2024-03-07T06:58:10;38.47;;;28.70;;
12840;SDS011;6487;48.626;12.486;2024-03-07T07:00:40;39.63;;;29.97;;
12840;SDS011;6487;48.626;12.486;2024-03-07T07:03:10;32.77;;;24.77;;
12840;SDS011;6487;48.626;12.486;2024-03-07T07:05:40;36.13;;;25.43;;
12840;SDS011;6487;48.626;12.486;2024-03-07T07:08:12;39.97;;;25.23;;
12840;SDS011;6487;48.626;12.486;2024-03-07T07:10:40;39.03;;;25.97;;
12840;SDS011;6487;48.626;12.486;2024-03-07T07:13:09;32.13;;;25.07;;
12840;SDS011;6487;48.626;12.486;2024-03-07T07:15:40;36.00;;;26.13;;
12840;SDS011;6487;48.626;12.486;2024-03-07T07:18:09;36.30;;;26.17;;
12840;SDS011;6487;48.626;12.486;2024-03-07T07:20:40;36.47;;;26.47;;
12840;SDS011;6487;48.626;12.486;2024-03-07T07:23:08;36.80;;;25.20;;
12840;SDS011;6487;48.626;12.486;2024-03-07T07:25:36;35.50;;;26.07;;
12840;SDS011;6487;48.626;12.486;2024-03-07T07:28:05;40.17;;;26.33;;
12840;SDS011;6487;48.626;12.486;2024-03-07T07:30:34;38.83;;;27.00;;
12840;SDS011;6487;48.626;12.486;2024-03-07T07:33:11;36.73;;;26.67;;
12840;SDS011;6487;48.626;12.486;2024-03-07T07:35:40;32.97;;;24.73;;
12840;SDS011;6487;48.626;12.486;2024-03-07T07:38:08;36.63;;;25.17;;
12840;SDS011;6487;48.626;12.486;2024-03-07T07:40:39;35.97;;;25.47;;
12840;SDS011;6487;48.626;12.486;2024-03-07T07:43:07;36.27;;;25.20;;
12840;SDS011;6487;48.626;12.486;2024-03-07T07:45:38;36.77;;;25.67;;
12840;SDS011;6487;48.626;12.486;2024-03-07T07:48:06;37.53;;;25.07;;
12840;SDS011;6487;48.626;12.486;2024-03-07T07:50:36;36.83;;;25.33;;
12840;SDS011;6487;48.626;12.486;2024-03-07T07:53:05;39.43;;;26.53;;
12840;SDS011;6487;48.626;12.486;2024-03-07T07:55:35;36.53;;;25.20;;
12840;SDS011;6487;48.626;12.486;2024-03-07T07:58:04;36.73;;;25.70;;
12840;SDS011;6487;48.626;12.486;2024-03-07T08:00:33;36.07;;;25.60;;
12840;SDS011;6487;48.626;12.486;2024-03-07T08:03:03;31.77;;;24.27;;
12840;SDS011;6487;48.626;12.486;2024-03-07T08:05:34;33.40;;;26.57;;
12840;SDS011;6487;48.626;12.486;2024-03-07T08:08:06;33.37;;;25.90;;
12840;SDS011;6487;48.626;12.486;2024-03-07T08:10:38;35.40;;;25.17;;
12840;SDS011;6487;48.626;12.486;2024-03-07T08:13:11;31.53;;;25.40;;
12840;SDS011;6487;48.626;12.486;2024-03-07T08:15:41;32.43;;;26.30;;
12840;SDS011;6487;48.626;12.486;2024-03-07T08:18:09;35.00;;;26.50;;
12840;SDS011;6487;48.626;12.486;2024-03-07T08:20:40;34.50;;;27.63;;
12840;SDS011;6487;48.626;12.486;2024-03-07T08:23:10;33.87;;;25.50;;
12840;SDS011;6487;48.626;12.486;2024-03-07T08:25:39;36.03;;;27.70;;
12840;SDS011;6487;48.626;12.486;2024-03-07T08:28:08;32.33;;;25.70;;
12840;SDS011;6487;48.626;12.486;2024-03-07T08:30:36;34.20;;;27.27;;
12840;SDS011;6487;48.626;12.486;2024-03-07T08:33:05;33.57;;;27.10;;
12840;SDS011;6487;48.626;12.486;2024-03-07T08:35:34;33.87;;;27.60;;
12840;SDS011;6487;48.626;12.486;2024-03-07T08:38:04;34.10;;;26.77;;
12840;SDS011;6487;48.626;12.486;2024-03-07T08:40:35;34.73;;;27.93;;
12840;SDS011;6487;48.626;12.486;2024-03-07T08:43:03;35.60;;;28.50;;
12840;SDS011;6487;48.626;12.486;2024-03-07T08:45:33;35.83;;;28.63;;
12840;SDS011;6487;48.626;12.486;2024-03-07T08:48:03;33.63;;;28.23;;
12840;SDS011;6487;48.626;12.486;2024-03-07T08:50:33;35.10;;;29.20;;
12840;SDS011;6487;48.626;12.486;2024-03-07T08:53:06;33.53;;;27.33;;
12840;SDS011;6487;48.626;12.486;2024-03-07T08:55:35;30.53;;;26.10;;
12840;SDS011;6487;48.626;12.486;2024-03-07T08:58:04;30.50;;;26.47;;
12840;SDS011;6487;48.626;12.486;2024-03-07T09:00:34;29.87;;;26.57;;
12840;SDS011;6487;48.626;12.486;2024-03-07T09:03:05;30.67;;;25.40;;
12840;SDS011;6487;48.626;12.486;2024-03-07T09:05:39;30.53;;;25.50;;
12840;SDS011;6487;48.626;12.486;2024-03-07T09:08:10;31.73;;;27.07;;
12840;SDS011;6487;48.626;12.486;2024-03-07T09:10:38;29.90;;;24.73;;
12840;SDS011;6487;48.626;12.486;2024-03-07T09:13:09;28.03;;;24.33;;
12840;SDS011;6487;48.626;12.486;2024-03-07T09:15:37;24.10;;;21.50;;
12840;SDS011;6487;48.626;12.486;2024-03-07T09:18:06;25.33;;;22.03;;
12840;SDS011;6487;48.626;12.486;2024-03-07T09:20:35;24.03;;;21.53;;
12840;SDS011;6487;48.626;12.486;2024-03-07T09:23:04;23.70;;;20.80;;
12840;SDS011;6487;48.626;12.486;2024-03-07T09:25:35;24.80;;;22.10;;
12840;SDS011;6487;48.626;12.486;2024-03-07T09:28:03;25.70;;;22.77;;
12840;SDS011;6487;48.626;12.486;2024-03-07T09:30:33;26.13;;;21.87;;
12840;SDS011;6487;48.626;12.486;2024-03-07T09:33:05;26.57;;;22.07;;
12840;SDS011;6487;48.626;12.486;2024-03-07T09:35:37;27.00;;;22.77;;
12840;SDS011;6487;48.626;12.486;2024-03-07T09:38:06;25.27;;;21.57;;
12840;SDS011;6487;48.626;12.486;2024-03-07T09:40:36;23.80;;;20.17;;
12840;SDS011;6487;48.626;12.486;2024-03-07T09:43:04;23.53;;;21.00;;
12840;SDS011;6487;48.626;12.486;2024-03-07T09:45:37;21.13;;;18.27;;
12840;SDS011;6487;48.626;12.486;2024-03-07T09:48:12;19.30;;;17.20;;
12840;SDS011;6487;48.626;12.486;2024-03-07T09:50:41;20.20;;;17.47;;
12840;SDS011;6487;48.626;12.486;2024-03-07T09:53:13;22.17;;;18.63;;
12840;SDS011;6487;48.626;12.486;2024-03-07T09:55:44;20.67;;;18.40;;
12840;SDS011;6487;48.626;12.486;2024-03-07T09:58:13;20.90;;;18.03;;
12840;SDS011;6487;48.626;12.486;2024-03-07T10:00:46;20.73;;;18.53;;
12840;SDS011;6487;48.626;12.486;2024-03-07T10:03:17;21.07;;;18.87;;
12840;SDS011;6487;48.626;12.486;2024-03-07T10:05:50;20.67;;;17.60;;
12840;SDS011;6487;48.626;12.486;2024-03-07T10:08:19;20.10;;;16.97;;
12840;SDS011;6487;48.626;12.486;2024-03-07T10:10:52;20.63;;;17.87;;
12840;SDS011;6487;48.626;12.486;2024-03-07T10:13:22;21.37;;;18.63;;
12840;SDS011;6487;48.626;12.486;2024-03-07T10:15:52;20.93;;;18.13;;
12840;SDS011;6487;48.626;12.486;2024-03-07T10:18:22;23.27;;;19.17;;
12840;SDS011;6487;48.626;12.486;2024-03-07T10:20:52;20.57;;;18.37;;
12840;SDS011;6487;48.626;12.486;2024-03-07T10:23:21;23.33;;;18.63;;
12840;SDS011;6487;48.626;12.486;2024-03-07T10:25:51;22.43;;;19.77;;
12840;SDS011;6487;48.626;12.486;2024-03-07T10:28:21;19.93;;;17.93;;
12840;SDS011;6487;48.626;12.486;2024-03-07T10:30:49;21.90;;;19.53;;
12840;SDS011;6487;48.626;12.486;2024-03-07T10:33:17;22.47;;;19.63;;
12840;SDS011;6487;48.626;12.486;2024-03-07T10:35:46;19.80;;;17.00;;
12840;SDS011;6487;48.626;12.486;2024-03-07T10:38:16;21.23;;;17.80;;
12840;SDS011;6487;48.626;12.486;2024-03-07T10:40:45;20.73;;;17.13;;
12840;SDS011;6487;48.626;12.486;2024-03-07T10:43:17;18.93;;;16.80;;
12840;SDS011;6487;48.626;12.486;2024-03-07T10:45:48;21.03;;;18.03;;
12840;SDS011;6487;48.626;12.486;2024-03-07T10:48:19;20.47;;;17.77;;
12840;SDS011;6487;48.626;12.486;2024-03-07T10:50:52;22.20;;;16.70;;
12840;SDS011;6487;48.626;12.486;2024-03-07T10:53:36;19.13;;;16.80;;
12840;SDS011;6487;48.626;12.486;2024-03-07T10:56:25;19.43;;;16.07;;
12840;SDS011;6487;48.626;12.486;2024-03-07T10:59:06;20.27;;;18.10;;
12840;SDS011;6487;48.626;12.486;2024-03-07T11:01:45;20.50;;;17.17;;
12840;SDS011;6487;48.626;12.486;2024-03-07T11:04:22;21.80;;;18.20;;
12840;SDS011;6487;48.626;12.486;2024-03-07T11:06:52;19.43;;;16.73;;
12840;SDS011;6487;48.626;12.486;2024-03-07T11:09:22;19.70;;;17.40;;
12840;SDS011;6487;48.626;12.486;2024-03-07T11:11:55;19.80;;;16.93;;
12840;SDS011;6487;48.626;12.486;2024-03-07T11:14:27;17.80;;;15.90;;
12840;SDS011;6487;48.626;12.486;2024-03-07T11:16:56;19.30;;;15.67;;
12840;SDS011;6487;48.626;12.486;2024-03-07T11:19:25;21.63;;;17.53;;
12840;SDS011;6487;48.626;12.486;2024-03-07T11:21:57;18.73;;;15.73;;
12840;SDS011;6487;48.626;12.486;2024-03-07T11:24:28;18.80;;;16.80;;
12840;SDS011;6487;48.626;12.486;2024-03-07T11:26:59;18.87;;;16.70;;
12840;SDS011;6487;48.626;12.486;2024-03-07T11:29:43;18.57;;;16.23;;
12840;SDS011;6487;48.626;12.486;2024-03-07T11:32:20;19.07;;;16.63;;
12840;SDS011;6487;48.626;12.486;2024-03-07T11:34:50;20.20;;;16.93;;
12840;SDS011;6487;48.626;12.486;2024-03-07T11:37:36;19.50;;;16.53;;
12840;SDS011;6487;48.626;12.486;2024-03-07T11:40:10;17.00;;;15.03;;
12840;SDS011;6487;48.626;12.486;2024-03-07T11:42:46;16.83;;;14.70;;
12840;SDS011;6487;48.626;12.486;2024-03-07T11:45:17;19.53;;;16.37;;
12840;SDS011;6487;48.626;12.486;2024-03-07T11:47:52;18.97;;;15.73;;
12840;SDS011;6487;48.626;12.486;2024-03-07T11:50:27;16.57;;;14.83;;
12840;SDS011;6487;48.626;12.486;2024-03-07T11:53:01;20.27;;;15.40;;
12840;SDS011;6487;48.626;12.486;2024-03-07T11:55:32;17.30;;;14.23;;
12840;SDS011;6487;48.626;12.486;2024-03-07T11:58:09;14.93;;;13.40;;
12840;SDS011;6487;48.626;12.486;2024-03-07T12:00:41;14.67;;;12.97;;
12840;SDS011;6487;48.626;12.486;2024-03-07T12:03:12;15.03;;;12.97;;
12840;SDS011;6487;48.626;12.486;2024-03-07T12:05:43;16.90;;;12.50;;
12840;SDS011;6487;48.626;12.486;2024-03-07T12:08:13;14.33;;;11.90;;
12840;SDS011;6487;48.626;12.486;2024-03-07T12:10:42;14.07;;;12.20;;
12840;SDS011;6487;48.626;12.486;2024-03-07T12:13:15;13.67;;;11.57;;
12840;SDS011;6487;48.626;12.486;2024-03-07T12:15:47;13.70;;;12.17;;
12840;SDS011;6487;48.626;12.486;2024-03-07T12:18:18;12.47;;;11.10;;
12840;SDS011;6487;48.626;12.486;2024-03-07T12:20:49;11.47;;;10.23;;
12840;SDS011;6487;48.626;12.486;2024-03-07T12:23:22;13.80;;;11.27;;
12840;SDS011;6487;48.626;12.486;2024-03-07T12:25:59;14.57;;;11.13;;
12840;SDS011;6487;48.626;12.486;2024-03-07T12:28:29;12.77;;;11.37;;
12840;SDS011;6487;48.626;12.486;2024-03-07T12:31:02;12.87;;;11.03;;
12840;SDS011;6487;48.626;12.486;2024-03-07T12:33:32;12.70;;;10.60;;
12840;SDS011;6487;48.626;12.486;2024-03-07T12:36:06;11.63;;;10.43;;
12840;SDS011;6487;48.626;12.486;2024-03-07T12:38:37;11.37;;;10.17;;
12840;SDS011;6487;48.626;12.486;2024-03-07T12:41:09;10.23;;;8.83;;
12840;SDS011;6487;48.626;12.486;2024-03-07T12:43:43;10.27;;;9.10;;
12840;SDS011;6487;48.626;12.486;2024-03-07T12:46:14;9.90;;;8.93;;
12840;SDS011;6487;48.626;12.486;2024-03-07T12:48:44;11.53;;;9.23;;
12840;SDS011;6487;48.626;12.486;2024-03-07T12:51:14;17.47;;;9.03;;
12840;SDS011;6487;48.626;12.486;2024-03-07T12:53:46;10.73;;;9.67;;
12840;SDS011;6487;48.626;12.486;2024-03-07T12:56:15;9.83;;;8.83;;
12840;SDS011;6487;48.626;12.486;2024-03-07T12:58:46;11.70;;;9.60;;
12840;SDS011;6487;48.626;12.486;2024-03-07T13:01:18;11.07;;;10.03;;
12840;SDS011;6487;48.626;12.486;2024-03-07T13:03:47;10.13;;;9.13;;
12840;SDS011;6487;48.626;12.486;2024-03-07T13:06:16;10.50;;;9.00;;
12840;SDS011;6487;48.626;12.486;2024-03-07T13:08:52;9.37;;;8.47;;
12840;SDS011;6487;48.626;12.486;2024-03-07T13:11:23;9.93;;;8.87;;
12840;SDS011;6487;48.626;12.486;2024-03-07T13:13:54;14.13;;;9.47;;
12840;SDS011;6487;48.626;12.486;2024-03-07T13:16:24;13.10;;;10.87;;
12840;SDS011;6487;48.626;12.486;2024-03-07T13:18:57;13.97;;;12.57;;
12840;SDS011;6487;48.626;12.486;2024-03-07T13:21:26;18.23;;;16.27;;
12840;SDS011;6487;48.626;12.486;2024-03-07T13:23:56;27.23;;;24.40;;
12840;SDS011;6487;48.626;12.486;2024-03-07T13:26:26;22.27;;;19.03;;
12840;SDS011;6487;48.626;12.486;2024-03-07T13:28:58;23.80;;;20.10;;
12840;SDS011;6487;48.626;12.486;2024-03-07T13:31:29;30.47;;;24.80;;
12840;SDS011;6487;48.626;12.486;2024-03-07T13:33:59;34.30;;;29.27;;
12840;SDS011;6487;48.626;12.486;2024-03-07T13:36:29;19.40;;;17.27;;
12840;SDS011;6487;48.626;12.486;2024-03-07T13:38:57;32.20;;;25.60;;
12840;SDS011;6487;48.626;12.486;2024-03-07T13:41:26;15.27;;;13.63;;
12840;SDS011;6487;48.626;12.486;2024-03-07T13:43:55;11.60;;;10.03;;
12840;SDS011;6487;48.626;12.486;2024-03-07T13:46:26;11.47;;;8.97;;
12840;SDS011;6487;48.626;12.486;2024-03-07T13:48:56;10.67;;;9.53;;
12840;SDS011;6487;48.626;12.486;2024-03-07T13:51:33;12.63;;;9.17;;
12840;SDS011;6487;48.626;12.486;2024-03-07T13:54:03;12.47;;;9.73;;
12840;SDS011;6487;48.626;12.486;2024-03-07T13:56:54;11.67;;;9.80;;
12840;SDS011;6487;48.626;12.486;2024-03-07T13:59:48;11.20;;;9.60;;
12840;SDS011;6487;48.626;12.486;2024-03-07T14:02:50;13.40;;;9.33;;
12840;SDS011;6487;48.626;12.486;2024-03-07T14:05:52;10.50;;;8.63;;
12840;SDS011;6487;48.626;12.486;2024-03-07T14:08:40;9.20;;;8.23;;
12840;SDS011;6487;48.626;12.486;2024-03-07T14:15:04;11.63;;;10.03;;
12840;SDS011;6487;48.626;12.486;2024-03-07T14:18:35;14.37;;;10.63;;
12840;SDS011;6487;48.626;12.486;2024-03-07T14:22:02;14.47;;;10.67;;
12840;SDS011;6487;48.626;12.486;2024-03-07T14:28:03;19.87;;;15.07;;
12840;SDS011;6487;48.626;12.486;2024-03-07T14:30:43;17.23;;;14.77;;
12840;SDS011;6487;48.626;12.486;2024-03-07T14:33:25;20.67;;;15.57;;
12840;SDS011;6487;48.626;12.486;2024-03-07T14:35:58;18.43;;;15.07;;
12840;SDS011;6487;48.626;12.486;2024-03-07T14:38:43;21.03;;;16.70;;
12840;SDS011;6487;48.626;12.486;2024-03-07T14:41:17;20.53;;;16.93;;
12840;SDS011;6487;48.626;12.486;2024-03-07T14:43:49;22.23;;;15.87;;
12840;SDS011;6487;48.626;12.486;2024-03-07T14:46:18;19.43;;;15.43;;
12840;SDS011;6487;48.626;12.486;2024-03-07T14:48:46;17.43;;;14.60;;
12840;SDS011;6487;48.626;12.486;2024-03-07T14:51:16;17.63;;;13.87;;
12840;SDS011;6487;48.626;12.486;2024-03-07T14:53:45;19.33;;;13.40;;